sensor_id;sensor_type;location;lat;lon;timestamp;P1;durP1;ratioP1;P2;durP2;ratioP2
46835;SDS011;32573;51.290;6.926;2023-04-15T00:00:00;4.35;;;1.90;;
46835;SDS011;32573;51.290;6.926;2023-04-15T00:02:38;3.67;;;2.05;;
46835;SDS011;32573;51.290;6.926;2023-04-15T00:05:07;5.20;;;2.35;;
46835;SDS011;32573;51.290;6.926;2023-04-15T00:07:36;4.80;;;2.30;;
46835;SDS011;32573;51.290;6.926;2023-04-15T00:10:06;3.97;;;2.20;;
46835;SDS011;32573;51.290;6.926;2023-04-15T00:12:35;4.03;;;1.90;;
46835;SDS011;32573;51.290;6.926;2023-04-15T00:15:06;4.78;;;2.38;;
46835;SDS011;32573;51.290;6.926;2023-04-15T00:17:36;4.10;;;2.10;;
46835;SDS011;32573;51.290;6.926;2023-04-15T00:20:06;4.72;;;2.00;;
46835;SDS011;32573;51.290;6.926;2023-04-15T00:22:35;4.72;;;2.28;;
46835;SDS011;32573;51.290;6.926;2023-04-15T00:25:03;3.72;;;2.08;;
46835;SDS011;32573;51.290;6.926;2023-04-15T00:27:32;5.30;;;2.45;;
46835;SDS011;32573;51.290;6.926;2023-04-15T00:30:01;5.75;;;2.40;;
46835;SDS011;32573;51.290;6.926;2023-04-15T00:32:31;5.28;;;2.53;;
46835;SDS011;32573;51.290;6.926;2023-04-15T00:35:00;4.05;;;2.17;;
46835;SDS011;32573;51.290;6.926;2023-04-15T00:37:29;4.45;;;2.22;;
46835;SDS011;32573;51.290;6.926;2023-04-15T00:39:58;3.97;;;2.10;;
46835;SDS011;32573;51.290;6.926;2023-04-15T00:42:26;4.45;;;2.22;;
46835;SDS011;32573;51.290;6.926;2023-04-15T00:44:55;4.90;;;2.33;;
46835;SDS011;32573;51.290;6.926;2023-04-15T00:47:24;3.80;;;1.73;;
46835;SDS011;32573;51.290;6.926;2023-04-15T00:49:56;4.18;;;1.95;;
46835;SDS011;32573;51.290;6.926;2023-04-15T00:52:25;3.65;;;1.80;;
46835;SDS011;32573;51.290;6.926;2023-04-15T00:54:54;4.03;;;2.10;;
46835;SDS011;32573;51.290;6.926;2023-04-15T00:57:22;3.28;;;2.00;;
46835;SDS011;32573;51.290;6.926;2023-04-15T00:59:51;4.22;;;1.98;;
46835;SDS011;32573;51.290;6.926;2023-04-15T01:02:20;4.32;;;1.90;;
46835;SDS011;32573;51.290;6.926;2023-04-15T01:04:49;3.88;;;1.88;;
46835;SDS011;32573;51.290;6.926;2023-04-15T01:07:19;4.15;;;2.25;;
46835;SDS011;32573;51.290;6.926;2023-04-15T01:09:48;3.60;;;2.10;;
46835;SDS011;32573;51.290;6.926;2023-04-15T01:12:17;4.13;;;1.80;;
46835;SDS011;32573;51.290;6.926;2023-04-15T01:14:47;3.50;;;1.80;;
46835;SDS011;32573;51.290;6.926;2023-04-15T01:17:16;3.63;;;1.80;;
46835;SDS011;32573;51.290;6.926;2023-04-15T01:19:45;5.35;;;1.90;;
46835;SDS011;32573;51.290;6.926;2023-04-15T01:22:13;4.20;;;2.08;;
46835;SDS011;32573;51.290;6.926;2023-04-15T01:24:44;3.70;;;2.03;;
46835;SDS011;32573;51.290;6.926;2023-04-15T01:27:22;4.10;;;1.77;;
46835;SDS011;32573;51.290;6.926;2023-04-15T01:29:52;3.63;;;1.75;;
46835;SDS011;32573;51.290;6.926;2023-04-15T01:32:20;3.75;;;1.98;;
46835;SDS011;32573;51.290;6.926;2023-04-15T01:34:51;3.67;;;1.77;;
46835;SDS011;32573;51.290;6.926;2023-04-15T01:37:23;4.35;;;1.80;;
46835;SDS011;32573;51.290;6.926;2023-04-15T01:39:51;3.38;;;1.52;;
46835;SDS011;32573;51.290;6.926;2023-04-15T01:42:23;3.70;;;1.77;;
46835;SDS011;32573;51.290;6.926;2023-04-15T01:44:52;3.17;;;1.70;;
46835;SDS011;32573;51.290;6.926;2023-04-15T01:47:21;3.65;;;1.70;;
46835;SDS011;32573;51.290;6.926;2023-04-15T01:49:49;3.25;;;1.70;;
46835;SDS011;32573;51.290;6.926;2023-04-15T01:52:18;3.55;;;1.58;;
46835;SDS011;32573;51.290;6.926;2023-04-15T01:54:46;3.38;;;1.80;;
46835;SDS011;32573;51.290;6.926;2023-04-15T01:57:15;3.70;;;1.60;;
46835;SDS011;32573;51.290;6.926;2023-04-15T01:59:45;3.70;;;1.58;;
46835;SDS011;32573;51.290;6.926;2023-04-15T02:02:14;3.28;;;1.60;;
46835;SDS011;32573;51.290;6.926;2023-04-15T02:04:43;3.92;;;1.70;;
46835;SDS011;32573;51.290;6.926;2023-04-15T02:07:11;2.90;;;1.50;;
46835;SDS011;32573;51.290;6.926;2023-04-15T02:09:40;3.30;;;1.65;;
46835;SDS011;32573;51.290;6.926;2023-04-15T02:12:09;3.53;;;1.55;;
46835;SDS011;32573;51.290;6.926;2023-04-15T02:14:38;3.58;;;1.55;;
46835;SDS011;32573;51.290;6.926;2023-04-15T02:17:08;4.47;;;1.77;;
46835;SDS011;32573;51.290;6.926;2023-04-15T02:19:36;4.28;;;1.90;;
46835;SDS011;32573;51.290;6.926;2023-04-15T02:22:06;3.65;;;1.73;;
46835;SDS011;32573;51.290;6.926;2023-04-15T02:24:35;3.63;;;1.90;;
46835;SDS011;32573;51.290;6.926;2023-04-15T02:27:03;3.28;;;1.90;;
46835;SDS011;32573;51.290;6.926;2023-04-15T02:29:32;3.60;;;1.80;;
46835;SDS011;32573;51.290;6.926;2023-04-15T02:32:01;3.28;;;1.60;;
46835;SDS011;32573;51.290;6.926;2023-04-15T02:34:31;3.80;;;1.88;;
46835;SDS011;32573;51.290;6.926;2023-04-15T02:36:59;3.50;;;1.70;;
46835;SDS011;32573;51.290;6.926;2023-04-15T02:39:29;3.90;;;2.03;;
46835;SDS011;32573;51.290;6.926;2023-04-15T02:41:58;3.75;;;1.70;;
46835;SDS011;32573;51.290;6.926;2023-04-15T02:44:27;3.70;;;1.95;;
46835;SDS011;32573;51.290;6.926;2023-04-15T02:46:58;3.75;;;1.90;;
46835;SDS011;32573;51.290;6.926;2023-04-15T02:49:27;4.05;;;1.88;;
46835;SDS011;32573;51.290;6.926;2023-04-15T02:51:58;4.50;;;2.10;;
46835;SDS011;32573;51.290;6.926;2023-04-15T02:54:26;3.35;;;1.83;;
46835;SDS011;32573;51.290;6.926;2023-04-15T02:56:56;4.75;;;2.00;;
46835;SDS011;32573;51.290;6.926;2023-04-15T02:59:24;3.70;;;1.83;;
46835;SDS011;32573;51.290;6.926;2023-04-15T03:01:53;3.63;;;1.90;;
46835;SDS011;32573;51.290;6.926;2023-04-15T03:04:27;3.70;;;1.85;;
46835;SDS011;32573;51.290;6.926;2023-04-15T03:06:58;3.90;;;1.83;;
46835;SDS011;32573;51.290;6.926;2023-04-15T03:09:27;3.20;;;1.58;;
46835;SDS011;32573;51.290;6.926;2023-04-15T03:11:56;3.90;;;1.80;;
46835;SDS011;32573;51.290;6.926;2023-04-15T03:14:25;4.15;;;2.00;;
46835;SDS011;32573;51.290;6.926;2023-04-15T03:16:53;4.68;;;1.98;;
46835;SDS011;32573;51.290;6.926;2023-04-15T03:19:22;5.35;;;2.15;;
46835;SDS011;32573;51.290;6.926;2023-04-15T03:21:53;4.07;;;2.00;;
46835;SDS011;32573;51.290;6.926;2023-04-15T03:24:23;3.28;;;1.63;;
46835;SDS011;32573;51.290;6.926;2023-04-15T03:26:51;4.88;;;2.00;;
46835;SDS011;32573;51.290;6.926;2023-04-15T03:29:22;3.33;;;1.65;;
46835;SDS011;32573;51.290;6.926;2023-04-15T03:31:51;4.00;;;1.90;;
46835;SDS011;32573;51.290;6.926;2023-04-15T03:34:20;3.38;;;1.80;;
46835;SDS011;32573;51.290;6.926;2023-04-15T03:36:49;3.75;;;1.85;;
46835;SDS011;32573;51.290;6.926;2023-04-15T03:39:18;3.58;;;1.75;;
46835;SDS011;32573;51.290;6.926;2023-04-15T03:41:48;3.58;;;1.80;;
46835;SDS011;32573;51.290;6.926;2023-04-15T03:44:16;3.70;;;1.70;;
46835;SDS011;32573;51.290;6.926;2023-04-15T03:46:45;4.70;;;1.98;;
46835;SDS011;32573;51.290;6.926;2023-04-15T03:49:14;3.78;;;1.88;;
46835;SDS011;32573;51.290;6.926;2023-04-15T03:51:42;3.83;;;1.85;;
46835;SDS011;32573;51.290;6.926;2023-04-15T03:54:11;3.65;;;1.90;;
46835;SDS011;32573;51.290;6.926;2023-04-15T03:56:41;3.60;;;2.00;;
46835;SDS011;32573;51.290;6.926;2023-04-15T03:59:11;4.05;;;2.00;;
46835;SDS011;32573;51.290;6.926;2023-04-15T04:01:39;3.92;;;2.17;;
46835;SDS011;32573;51.290;6.926;2023-04-15T04:04:08;3.95;;;2.22;;
46835;SDS011;32573;51.290;6.926;2023-04-15T04:06:37;4.05;;;2.38;;
46835;SDS011;32573;51.290;6.926;2023-04-15T04:09:05;4.70;;;2.40;;
46835;SDS011;32573;51.290;6.926;2023-04-15T04:11:34;4.20;;;2.15;;
46835;SDS011;32573;51.290;6.926;2023-04-15T04:14:03;4.25;;;2.25;;
46835;SDS011;32573;51.290;6.926;2023-04-15T04:16:33;4.15;;;2.20;;
46835;SDS011;32573;51.290;6.926;2023-04-15T04:19:02;4.55;;;2.40;;
46835;SDS011;32573;51.290;6.926;2023-04-15T04:21:30;4.25;;;2.40;;
46835;SDS011;32573;51.290;6.926;2023-04-15T04:24:00;4.57;;;2.22;;
46835;SDS011;32573;51.290;6.926;2023-04-15T04:26:28;4.95;;;2.10;;
46835;SDS011;32573;51.290;6.926;2023-04-15T04:28:57;4.85;;;2.30;;
46835;SDS011;32573;51.290;6.926;2023-04-15T04:31:26;3.83;;;2.10;;
46835;SDS011;32573;51.290;6.926;2023-04-15T04:33:56;5.20;;;2.47;;
46835;SDS011;32573;51.290;6.926;2023-04-15T04:36:25;4.25;;;2.35;;
46835;SDS011;32573;51.290;6.926;2023-04-15T04:38:53;5.22;;;2.70;;
46835;SDS011;32573;51.290;6.926;2023-04-15T04:41:22;5.70;;;2.42;;
46835;SDS011;32573;51.290;6.926;2023-04-15T04:43:50;5.13;;;2.70;;
46835;SDS011;32573;51.290;6.926;2023-04-15T04:46:19;5.72;;;2.90;;
46835;SDS011;32573;51.290;6.926;2023-04-15T04:48:47;5.38;;;2.80;;
46835;SDS011;32573;51.290;6.926;2023-04-15T04:51:17;6.20;;;2.80;;
46835;SDS011;32573;51.290;6.926;2023-04-15T04:53:46;5.75;;;2.72;;
46835;SDS011;32573;51.290;6.926;2023-04-15T04:56:15;5.82;;;3.13;;
46835;SDS011;32573;51.290;6.926;2023-04-15T04:58:43;6.43;;;3.33;;
46835;SDS011;32573;51.290;6.926;2023-04-15T05:01:12;6.85;;;3.58;;
46835;SDS011;32573;51.290;6.926;2023-04-15T05:03:41;8.25;;;4.03;;
46835;SDS011;32573;51.290;6.926;2023-04-15T05:06:10;8.02;;;4.30;;
46835;SDS011;32573;51.290;6.926;2023-04-15T05:08:40;7.40;;;4.10;;
46835;SDS011;32573;51.290;6.926;2023-04-15T05:11:08;8.57;;;4.45;;
46835;SDS011;32573;51.290;6.926;2023-04-15T05:13:37;8.05;;;4.60;;
46835;SDS011;32573;51.290;6.926;2023-04-15T05:16:06;6.80;;;4.00;;
46835;SDS011;32573;51.290;6.926;2023-04-15T05:18:35;7.10;;;4.20;;
46835;SDS011;32573;51.290;6.926;2023-04-15T05:21:04;12.05;;;5.40;;
46835;SDS011;32573;51.290;6.926;2023-04-15T05:23:33;7.75;;;4.53;;
46835;SDS011;32573;51.290;6.926;2023-04-15T05:26:03;8.85;;;5.10;;
46835;SDS011;32573;51.290;6.926;2023-04-15T05:28:32;8.05;;;4.80;;
46835;SDS011;32573;51.290;6.926;2023-04-15T05:31:00;9.82;;;5.40;;
46835;SDS011;32573;51.290;6.926;2023-04-15T05:33:29;8.93;;;5.10;;
46835;SDS011;32573;51.290;6.926;2023-04-15T05:35:58;9.57;;;5.32;;
46835;SDS011;32573;51.290;6.926;2023-04-15T05:38:27;10.70;;;5.70;;
46835;SDS011;32573;51.290;6.926;2023-04-15T05:40:55;8.93;;;4.95;;
46835;SDS011;32573;51.290;6.926;2023-04-15T05:43:25;8.77;;;5.47;;
46835;SDS011;32573;51.290;6.926;2023-04-15T05:45:54;10.43;;;5.40;;
46835;SDS011;32573;51.290;6.926;2023-04-15T05:48:22;9.77;;;6.10;;
46835;SDS011;32573;51.290;6.926;2023-04-15T05:50:51;13.85;;;7.18;;
46835;SDS011;32573;51.290;6.926;2023-04-15T05:53:20;10.40;;;6.13;;
46835;SDS011;32573;51.290;6.926;2023-04-15T05:55:48;9.93;;;5.95;;
46835;SDS011;32573;51.290;6.926;2023-04-15T05:58:17;10.02;;;5.22;;
46835;SDS011;32573;51.290;6.926;2023-04-15T06:00:46;8.32;;;4.93;;
46835;SDS011;32573;51.290;6.926;2023-04-15T06:03:15;7.82;;;4.78;;
46835;SDS011;32573;51.290;6.926;2023-04-15T06:05:44;7.70;;;4.80;;
46835;SDS011;32573;51.290;6.926;2023-04-15T06:08:12;9.43;;;5.28;;
46835;SDS011;32573;51.290;6.926;2023-04-15T06:10:41;10.68;;;6.32;;
46835;SDS011;32573;51.290;6.926;2023-04-15T06:13:10;10.63;;;6.07;;
46835;SDS011;32573;51.290;6.926;2023-04-15T06:15:38;11.02;;;6.03;;
46835;SDS011;32573;51.290;6.926;2023-04-15T06:18:08;11.05;;;6.75;;
46835;SDS011;32573;51.290;6.926;2023-04-15T06:20:39;9.68;;;5.82;;
46835;SDS011;32573;51.290;6.926;2023-04-15T06:23:08;9.48;;;5.97;;
46835;SDS011;32573;51.290;6.926;2023-04-15T06:25:36;10.15;;;5.93;;
46835;SDS011;32573;51.290;6.926;2023-04-15T06:28:05;10.13;;;5.80;;
46835;SDS011;32573;51.290;6.926;2023-04-15T06:30:34;10.25;;;6.07;;
46835;SDS011;32573;51.290;6.926;2023-04-15T06:33:03;8.38;;;5.47;;
46835;SDS011;32573;51.290;6.926;2023-04-15T06:35:33;8.07;;;4.45;;
46835;SDS011;32573;51.290;6.926;2023-04-15T06:38:02;7.05;;;4.35;;
46835;SDS011;32573;51.290;6.926;2023-04-15T06:40:30;6.72;;;4.10;;
46835;SDS011;32573;51.290;6.926;2023-04-15T06:42:59;8.05;;;4.38;;
46835;SDS011;32573;51.290;6.926;2023-04-15T06:45:27;10.93;;;6.25;;
46835;SDS011;32573;51.290;6.926;2023-04-15T06:47:56;8.40;;;5.10;;
46835;SDS011;32573;51.290;6.926;2023-04-15T06:50:24;10.75;;;6.40;;
46835;SDS011;32573;51.290;6.926;2023-04-15T06:52:55;10.65;;;6.40;;
46835;SDS011;32573;51.290;6.926;2023-04-15T06:55:24;9.30;;;5.80;;
46835;SDS011;32573;51.290;6.926;2023-04-15T06:57:53;8.63;;;5.20;;
46835;SDS011;32573;51.290;6.926;2023-04-15T07:00:22;9.48;;;5.25;;
46835;SDS011;32573;51.290;6.926;2023-04-15T07:02:51;10.32;;;5.63;;
46835;SDS011;32573;51.290;6.926;2023-04-15T07:05:22;9.02;;;4.82;;
46835;SDS011;32573;51.290;6.926;2023-04-15T07:07:51;6.95;;;3.90;;
46835;SDS011;32573;51.290;6.926;2023-04-15T07:10:21;10.23;;;5.10;;
46835;SDS011;32573;51.290;6.926;2023-04-15T07:12:51;8.20;;;4.65;;
46835;SDS011;32573;51.290;6.926;2023-04-15T07:15:20;9.38;;;4.97;;
46835;SDS011;32573;51.290;6.926;2023-04-15T07:17:49;8.90;;;5.07;;
46835;SDS011;32573;51.290;6.926;2023-04-15T07:20:18;9.15;;;5.28;;
46835;SDS011;32573;51.290;6.926;2023-04-15T07:22:47;9.60;;;5.20;;
46835;SDS011;32573;51.290;6.926;2023-04-15T07:25:15;11.57;;;6.07;;
46835;SDS011;32573;51.290;6.926;2023-04-15T07:27:46;11.50;;;6.57;;
46835;SDS011;32573;51.290;6.926;2023-04-15T07:30:14;8.90;;;5.28;;
46835;SDS011;32573;51.290;6.926;2023-04-15T07:32:43;8.85;;;5.20;;
46835;SDS011;32573;51.290;6.926;2023-04-15T07:35:13;10.10;;;5.75;;
46835;SDS011;32573;51.290;6.926;2023-04-15T07:37:41;8.05;;;4.90;;
46835;SDS011;32573;51.290;6.926;2023-04-15T07:40:10;7.25;;;4.07;;
46835;SDS011;32573;51.290;6.926;2023-04-15T07:42:40;8.68;;;4.15;;
46835;SDS011;32573;51.290;6.926;2023-04-15T07:45:11;7.63;;;4.55;;
46835;SDS011;32573;51.290;6.926;2023-04-15T07:47:39;7.07;;;4.03;;
46835;SDS011;32573;51.290;6.926;2023-04-15T07:50:08;7.75;;;3.75;;
46835;SDS011;32573;51.290;6.926;2023-04-15T07:52:38;8.80;;;4.25;;
46835;SDS011;32573;51.290;6.926;2023-04-15T07:55:07;5.85;;;3.38;;
46835;SDS011;32573;51.290;6.926;2023-04-15T07:57:36;8.38;;;4.88;;
46835;SDS011;32573;51.290;6.926;2023-04-15T08:00:05;8.32;;;4.88;;
46835;SDS011;32573;51.290;6.926;2023-04-15T08:02:42;7.82;;;4.50;;
46835;SDS011;32573;51.290;6.926;2023-04-15T08:05:13;7.72;;;4.57;;
46835;SDS011;32573;51.290;6.926;2023-04-15T08:07:41;8.65;;;5.30;;
46835;SDS011;32573;51.290;6.926;2023-04-15T08:10:10;8.25;;;4.68;;
46835;SDS011;32573;51.290;6.926;2023-04-15T08:12:42;9.00;;;5.30;;
46835;SDS011;32573;51.290;6.926;2023-04-15T08:15:11;10.15;;;5.93;;
46835;SDS011;32573;51.290;6.926;2023-04-15T08:17:40;10.95;;;6.05;;
46835;SDS011;32573;51.290;6.926;2023-04-15T08:20:10;10.05;;;5.13;;
46835;SDS011;32573;51.290;6.926;2023-04-15T08:22:39;7.45;;;4.88;;
46835;SDS011;32573;51.290;6.926;2023-04-15T08:25:08;7.75;;;4.28;;
46835;SDS011;32573;51.290;6.926;2023-04-15T08:27:37;7.80;;;4.45;;
46835;SDS011;32573;51.290;6.926;2023-04-15T08:30:06;8.20;;;4.70;;
46835;SDS011;32573;51.290;6.926;2023-04-15T08:32:35;9.27;;;5.65;;
46835;SDS011;32573;51.290;6.926;2023-04-15T08:35:04;8.77;;;4.50;;
46835;SDS011;32573;51.290;6.926;2023-04-15T08:37:35;7.00;;;3.90;;
46835;SDS011;32573;51.290;6.926;2023-04-15T08:40:04;7.00;;;3.85;;
46835;SDS011;32573;51.290;6.926;2023-04-15T08:42:35;8.38;;;4.07;;
46835;SDS011;32573;51.290;6.926;2023-04-15T08:45:10;7.32;;;4.03;;
46835;SDS011;32573;51.290;6.926;2023-04-15T08:47:39;9.57;;;4.38;;
46835;SDS011;32573;51.290;6.926;2023-04-15T08:50:10;7.32;;;4.30;;
46835;SDS011;32573;51.290;6.926;2023-04-15T08:52:40;6.53;;;3.58;;
46835;SDS011;32573;51.290;6.926;2023-04-15T08:55:09;6.65;;;3.88;;
46835;SDS011;32573;51.290;6.926;2023-04-15T08:57:40;6.97;;;4.28;;
46835;SDS011;32573;51.290;6.926;2023-04-15T09:00:09;7.22;;;3.92;;
46835;SDS011;32573;51.290;6.926;2023-04-15T09:02:40;7.03;;;3.97;;
46835;SDS011;32573;51.290;6.926;2023-04-15T09:05:09;8.02;;;4.18;;
46835;SDS011;32573;51.290;6.926;2023-04-15T09:07:37;6.68;;;3.42;;
46835;SDS011;32573;51.290;6.926;2023-04-15T09:10:10;6.70;;;3.60;;
46835;SDS011;32573;51.290;6.926;2023-04-15T09:12:39;6.63;;;3.53;;
46835;SDS011;32573;51.290;6.926;2023-04-15T09:15:09;5.68;;;3.38;;
46835;SDS011;32573;51.290;6.926;2023-04-15T09:17:41;5.88;;;3.25;;
46835;SDS011;32573;51.290;6.926;2023-04-15T09:20:11;5.47;;;3.00;;
46835;SDS011;32573;51.290;6.926;2023-04-15T09:22:42;5.07;;;2.85;;
46835;SDS011;32573;51.290;6.926;2023-04-15T09:25:26;4.63;;;2.40;;
46835;SDS011;32573;51.290;6.926;2023-04-15T09:28:01;5.10;;;2.63;;
46835;SDS011;32573;51.290;6.926;2023-04-15T09:30:29;4.65;;;2.53;;
46835;SDS011;32573;51.290;6.926;2023-04-15T09:32:59;5.65;;;2.50;;
46835;SDS011;32573;51.290;6.926;2023-04-15T09:35:28;5.05;;;2.70;;
46835;SDS011;32573;51.290;6.926;2023-04-15T09:38:00;5.55;;;3.30;;
46835;SDS011;32573;51.290;6.926;2023-04-15T09:40:32;6.15;;;3.30;;
46835;SDS011;32573;51.290;6.926;2023-04-15T09:43:02;7.00;;;3.70;;
46835;SDS011;32573;51.290;6.926;2023-04-15T09:45:32;6.38;;;3.20;;
46835;SDS011;32573;51.290;6.926;2023-04-15T09:48:14;6.13;;;3.10;;
46835;SDS011;32573;51.290;6.926;2023-04-15T09:50:44;5.85;;;3.20;;
46835;SDS011;32573;51.290;6.926;2023-04-15T09:53:14;6.03;;;3.33;;
46835;SDS011;32573;51.290;6.926;2023-04-15T09:55:48;5.70;;;3.38;;
46835;SDS011;32573;51.290;6.926;2023-04-15T09:58:17;5.93;;;3.83;;
46835;SDS011;32573;51.290;6.926;2023-04-15T10:00:47;5.38;;;3.75;;
46835;SDS011;32573;51.290;6.926;2023-04-15T10:03:18;5.70;;;3.85;;
46835;SDS011;32573;51.290;6.926;2023-04-15T10:05:49;5.85;;;3.63;;
46835;SDS011;32573;51.290;6.926;2023-04-15T10:08:20;5.63;;;3.90;;
46835;SDS011;32573;51.290;6.926;2023-04-15T10:10:52;5.93;;;3.80;;
46835;SDS011;32573;51.290;6.926;2023-04-15T10:13:22;5.20;;;2.90;;
46835;SDS011;32573;51.290;6.926;2023-04-15T10:15:55;5.28;;;3.33;;
46835;SDS011;32573;51.290;6.926;2023-04-15T10:18:26;5.20;;;3.20;;
46835;SDS011;32573;51.290;6.926;2023-04-15T10:20:58;5.30;;;3.42;;
46835;SDS011;32573;51.290;6.926;2023-04-15T10:23:27;4.43;;;2.63;;
46835;SDS011;32573;51.290;6.926;2023-04-15T10:25:57;5.38;;;3.08;;
46835;SDS011;32573;51.290;6.926;2023-04-15T10:28:27;4.70;;;3.05;;
46835;SDS011;32573;51.290;6.926;2023-04-15T10:30:55;5.78;;;3.55;;
46835;SDS011;32573;51.290;6.926;2023-04-15T10:33:25;4.30;;;2.70;;
46835;SDS011;32573;51.290;6.926;2023-04-15T10:35:55;4.60;;;3.10;;
46835;SDS011;32573;51.290;6.926;2023-04-15T10:38:31;4.30;;;2.92;;
46835;SDS011;32573;51.290;6.926;2023-04-15T10:41:12;4.72;;;2.90;;
46835;SDS011;32573;51.290;6.926;2023-04-15T10:43:48;3.97;;;2.60;;
46835;SDS011;32573;51.290;6.926;2023-04-15T10:46:20;5.07;;;3.60;;
46835;SDS011;32573;51.290;6.926;2023-04-15T10:48:52;5.30;;;3.25;;
46835;SDS011;32573;51.290;6.926;2023-04-15T10:51:27;6.05;;;3.90;;
46835;SDS011;32573;51.290;6.926;2023-04-15T10:53:58;6.07;;;4.35;;
46835;SDS011;32573;51.290;6.926;2023-04-15T10:56:29;6.93;;;4.95;;
46835;SDS011;32573;51.290;6.926;2023-04-15T10:58:58;7.35;;;4.72;;
46835;SDS011;32573;51.290;6.926;2023-04-15T11:07:38;7.22;;;4.78;;
46835;SDS011;32573;51.290;6.926;2023-04-15T11:13:18;8.90;;;5.78;;
46835;SDS011;32573;51.290;6.926;2023-04-15T11:15:55;8.48;;;5.13;;
46835;SDS011;32573;51.290;6.926;2023-04-15T11:18:28;7.53;;;5.50;;
46835;SDS011;32573;51.290;6.926;2023-04-15T11:20:59;8.10;;;5.88;;
46835;SDS011;32573;51.290;6.926;2023-04-15T11:23:31;7.43;;;5.05;;
46835;SDS011;32573;51.290;6.926;2023-04-15T11:26:02;7.28;;;4.55;;
46835;SDS011;32573;51.290;6.926;2023-04-15T11:28:37;7.73;;;5.20;;
46835;SDS011;32573;51.290;6.926;2023-04-15T11:31:08;5.88;;;4.18;;
46835;SDS011;32573;51.290;6.926;2023-04-15T11:33:43;6.05;;;4.47;;
46835;SDS011;32573;51.290;6.926;2023-04-15T11:36:14;6.95;;;5.00;;
46835;SDS011;32573;51.290;6.926;2023-04-15T11:38:43;7.15;;;5.10;;
46835;SDS011;32573;51.290;6.926;2023-04-15T11:41:13;6.95;;;5.60;;
46835;SDS011;32573;51.290;6.926;2023-04-15T11:43:43;8.18;;;5.60;;
46835;SDS011;32573;51.290;6.926;2023-04-15T11:46:13;6.03;;;4.53;;
46835;SDS011;32573;51.290;6.926;2023-04-15T11:48:42;5.80;;;4.07;;
46835;SDS011;32573;51.290;6.926;2023-04-15T11:51:13;5.88;;;4.18;;
46835;SDS011;32573;51.290;6.926;2023-04-15T11:53:42;6.10;;;4.32;;
46835;SDS011;32573;51.290;6.926;2023-04-15T11:56:16;5.40;;;3.63;;
46835;SDS011;32573;51.290;6.926;2023-04-15T11:58:50;5.95;;;3.67;;
46835;SDS011;32573;51.290;6.926;2023-04-15T12:01:19;7.28;;;3.20;;
46835;SDS011;32573;51.290;6.926;2023-04-15T12:03:48;5.45;;;3.03;;
46835;SDS011;32573;51.290;6.926;2023-04-15T12:06:17;5.68;;;3.40;;
46835;SDS011;32573;51.290;6.926;2023-04-15T12:08:47;5.50;;;3.03;;
46835;SDS011;32573;51.290;6.926;2023-04-15T12:11:21;5.53;;;2.85;;
46835;SDS011;32573;51.290;6.926;2023-04-15T12:13:58;5.57;;;3.17;;
46835;SDS011;32573;51.290;6.926;2023-04-15T12:16:30;4.97;;;2.90;;
46835;SDS011;32573;51.290;6.926;2023-04-15T12:19:14;5.53;;;3.08;;
46835;SDS011;32573;51.290;6.926;2023-04-15T12:21:45;5.85;;;3.28;;
46835;SDS011;32573;51.290;6.926;2023-04-15T12:24:15;5.97;;;3.88;;
46835;SDS011;32573;51.290;6.926;2023-04-15T12:26:48;5.93;;;4.13;;
46835;SDS011;32573;51.290;6.926;2023-04-15T12:29:18;5.50;;;3.50;;
46835;SDS011;32573;51.290;6.926;2023-04-15T12:31:54;5.78;;;3.50;;
46835;SDS011;32573;51.290;6.926;2023-04-15T12:34:27;4.80;;;2.88;;
46835;SDS011;32573;51.290;6.926;2023-04-15T12:36:57;5.38;;;2.90;;
46835;SDS011;32573;51.290;6.926;2023-04-15T12:39:28;6.22;;;3.22;;
46835;SDS011;32573;51.290;6.926;2023-04-15T12:41:59;5.75;;;3.00;;
46835;SDS011;32573;51.290;6.926;2023-04-15T12:44:30;5.28;;;3.00;;
46835;SDS011;32573;51.290;6.926;2023-04-15T12:46:59;6.15;;;3.03;;
46835;SDS011;32573;51.290;6.926;2023-04-15T12:49:28;4.47;;;2.60;;
46835;SDS011;32573;51.290;6.926;2023-04-15T12:51:57;4.97;;;2.60;;
46835;SDS011;32573;51.290;6.926;2023-04-15T12:54:27;5.03;;;2.70;;
46835;SDS011;32573;51.290;6.926;2023-04-15T12:56:56;4.88;;;2.70;;
46835;SDS011;32573;51.290;6.926;2023-04-15T12:59:25;5.53;;;2.90;;
46835;SDS011;32573;51.290;6.926;2023-04-15T13:01:57;4.43;;;2.33;;
46835;SDS011;32573;51.290;6.926;2023-04-15T13:04:26;4.47;;;2.42;;
46835;SDS011;32573;51.290;6.926;2023-04-15T13:06:57;5.18;;;2.63;;
46835;SDS011;32573;51.290;6.926;2023-04-15T13:09:26;5.60;;;2.33;;
46835;SDS011;32573;51.290;6.926;2023-04-15T13:11:54;4.32;;;2.30;;
46835;SDS011;32573;51.290;6.926;2023-04-15T13:14:24;4.32;;;2.08;;
46835;SDS011;32573;51.290;6.926;2023-04-15T13:16:53;4.50;;;2.40;;
46835;SDS011;32573;51.290;6.926;2023-04-15T13:19:23;4.28;;;2.40;;
46835;SDS011;32573;51.290;6.926;2023-04-15T13:21:51;4.60;;;2.47;;
46835;SDS011;32573;51.290;6.926;2023-04-15T13:24:20;4.18;;;2.40;;
46835;SDS011;32573;51.290;6.926;2023-04-15T13:26:49;4.30;;;2.13;;
46835;SDS011;32573;51.290;6.926;2023-04-15T13:29:18;4.85;;;2.60;;
46835;SDS011;32573;51.290;6.926;2023-04-15T13:31:46;4.57;;;2.15;;
46835;SDS011;32573;51.290;6.926;2023-04-15T13:34:15;4.53;;;2.45;;
46835;SDS011;32573;51.290;6.926;2023-04-15T13:36:45;4.68;;;2.63;;
46835;SDS011;32573;51.290;6.926;2023-04-15T13:39:14;4.20;;;2.40;;
46835;SDS011;32573;51.290;6.926;2023-04-15T13:41:43;5.88;;;2.92;;
46835;SDS011;32573;51.290;6.926;2023-04-15T13:44:14;5.43;;;2.90;;
46835;SDS011;32573;51.290;6.926;2023-04-15T13:46:45;4.88;;;2.50;;
46835;SDS011;32573;51.290;6.926;2023-04-15T13:49:14;5.13;;;2.53;;
46835;SDS011;32573;51.290;6.926;2023-04-15T13:51:45;5.53;;;2.45;;
46835;SDS011;32573;51.290;6.926;2023-04-15T13:54:14;4.95;;;2.60;;
46835;SDS011;32573;51.290;6.926;2023-04-15T13:56:44;5.35;;;2.55;;
46835;SDS011;32573;51.290;6.926;2023-04-15T13:59:14;5.35;;;2.67;;
46835;SDS011;32573;51.290;6.926;2023-04-15T14:01:43;4.97;;;2.42;;
46835;SDS011;32573;51.290;6.926;2023-04-15T14:04:12;5.38;;;2.58;;
46835;SDS011;32573;51.290;6.926;2023-04-15T14:06:41;4.68;;;2.70;;
46835;SDS011;32573;51.290;6.926;2023-04-15T14:09:11;4.68;;;2.35;;
46835;SDS011;32573;51.290;6.926;2023-04-15T14:11:40;4.30;;;2.10;;
46835;SDS011;32573;51.290;6.926;2023-04-15T14:14:08;4.00;;;2.08;;
46835;SDS011;32573;51.290;6.926;2023-04-15T14:16:37;4.20;;;2.20;;
46835;SDS011;32573;51.290;6.926;2023-04-15T14:19:06;4.10;;;2.33;;
46835;SDS011;32573;51.290;6.926;2023-04-15T14:21:35;3.72;;;2.08;;
46835;SDS011;32573;51.290;6.926;2023-04-15T14:24:04;4.20;;;2.05;;
46835;SDS011;32573;51.290;6.926;2023-04-15T14:26:34;14.57;;;6.43;;
46835;SDS011;32573;51.290;6.926;2023-04-15T14:29:03;12.77;;;6.28;;
46835;SDS011;32573;51.290;6.926;2023-04-15T14:31:32;19.25;;;8.32;;
46835;SDS011;32573;51.290;6.926;2023-04-15T14:34:01;11.65;;;4.90;;
46835;SDS011;32573;51.290;6.926;2023-04-15T14:36:30;18.77;;;8.35;;
46835;SDS011;32573;51.290;6.926;2023-04-15T14:38:59;27.75;;;9.35;;
46835;SDS011;32573;51.290;6.926;2023-04-15T14:41:28;19.30;;;8.55;;
46835;SDS011;32573;51.290;6.926;2023-04-15T14:43:58;10.48;;;4.68;;
46835;SDS011;32573;51.290;6.926;2023-04-15T14:46:26;9.52;;;4.25;;
46835;SDS011;32573;51.290;6.926;2023-04-15T14:48:55;7.53;;;3.83;;
46835;SDS011;32573;51.290;6.926;2023-04-15T14:51:24;7.10;;;3.17;;
46835;SDS011;32573;51.290;6.926;2023-04-15T14:53:53;5.78;;;2.75;;
46835;SDS011;32573;51.290;6.926;2023-04-15T14:56:21;8.23;;;2.67;;
46835;SDS011;32573;51.290;6.926;2023-04-15T14:58:50;4.32;;;2.25;;
46835;SDS011;32573;51.290;6.926;2023-04-15T15:01:21;5.22;;;2.30;;
46835;SDS011;32573;51.290;6.926;2023-04-15T15:03:51;4.80;;;2.15;;
46835;SDS011;32573;51.290;6.926;2023-04-15T15:06:20;4.97;;;2.30;;
46835;SDS011;32573;51.290;6.926;2023-04-15T15:08:49;4.32;;;2.25;;